sensor_id;sensor_type;location;lat;lon;timestamp;pressure;altitude;pressure_sealevel;temperature;humidity
76460;BME280;65299;46.084;18.762;2023-06-19T05:11:57;100533.47;;;20.04;72.40
76460;BME280;65299;46.084;18.762;2023-06-19T05:15:00;100536.88;;;20.55;71.47
76460;BME280;65299;46.084;18.762;2023-06-19T05:18:00;100538.44;;;20.94;69.89
76460;BME280;65299;46.084;18.762;2023-06-19T05:21:02;100546.13;;;20.75;68.16
76460;BME280;65299;46.084;18.762;2023-06-19T05:24:08;100553.72;;;20.44;69.48
76460;BME280;65299;46.084;18.762;2023-06-19T05:27:10;100549.56;;;20.55;69.46
76460;BME280;65299;46.084;18.762;2023-06-19T05:30:11;100556.16;;;21.12;68.13
76460;BME280;65299;46.084;18.762;2023-06-19T05:33:11;100556.38;;;21.28;67.21
76460;BME280;65299;46.084;18.762;2023-06-19T05:36:16;100565.06;;;21.13;67.47
76460;BME280;65299;46.084;18.762;2023-06-19T05:39:16;100563.69;;;20.90;67.99
76460;BME280;65299;46.084;18.762;2023-06-19T05:42:21;100573.84;;;20.93;68.28
76460;BME280;65299;46.084;18.762;2023-06-19T05:45:21;100576.22;;;21.03;67.76
76460;BME280;65299;46.084;18.762;2023-06-19T05:48:22;100579.59;;;21.50;66.56
76460;BME280;65299;46.084;18.762;2023-06-19T05:51:22;100579.53;;;21.37;67.55
76460;BME280;65299;46.084;18.762;2023-06-19T05:54:22;100585.69;;;21.17;69.99
76460;BME280;65299;46.084;18.762;2023-06-19T05:57:23;100586.06;;;21.28;70.26
76460;BME280;65299;46.084;18.762;2023-06-19T06:00:23;100580.81;;;20.94;71.58
76460;BME280;65299;46.084;18.762;2023-06-19T06:03:24;100591.63;;;21.31;69.92
76460;BME280;65299;46.084;18.762;2023-06-19T06:06:25;100584.25;;;21.40;68.79
76460;BME280;65299;46.084;18.762;2023-06-19T06:09:26;100589.50;;;21.87;67.84
76460;BME280;65299;46.084;18.762;2023-06-19T06:12:29;100588.91;;;21.81;67.06
76460;BME280;65299;46.084;18.762;2023-06-19T06:15:30;100597.06;;;21.73;68.21
76460;BME280;65299;46.084;18.762;2023-06-19T06:18:32;100595.38;;;21.89;68.27
76460;BME280;65299;46.084;18.762;2023-06-19T06:21:33;100600.19;;;22.04;67.50
76460;BME280;65299;46.084;18.762;2023-06-19T06:24:34;100597.13;;;22.26;66.69
76460;BME280;65299;46.084;18.762;2023-06-19T06:27:35;100599.19;;;22.62;64.64
76460;BME280;65299;46.084;18.762;2023-06-19T06:30:36;100604.97;;;22.40;65.51
76460;BME280;65299;46.084;18.762;2023-06-19T06:33:36;100603.84;;;23.22;63.87
76460;BME280;65299;46.084;18.762;2023-06-19T06:36:39;100610.50;;;23.24;63.10
76460;BME280;65299;46.084;18.762;2023-06-19T06:39:39;100609.16;;;23.42;62.34
76460;BME280;65299;46.084;18.762;2023-06-19T06:42:40;100606.78;;;23.04;63.86
76460;BME280;65299;46.084;18.762;2023-06-19T06:45:41;100607.91;;;23.52;62.92
76460;BME280;65299;46.084;18.762;2023-06-19T06:48:44;100600.22;;;23.54;59.42
76460;BME280;65299;46.084;18.762;2023-06-19T06:51:47;100615.72;;;24.05;59.53
76460;BME280;65299;46.084;18.762;2023-06-19T06:54:47;100616.59;;;24.09;60.41
76460;BME280;65299;46.084;18.762;2023-06-19T06:57:48;100612.69;;;23.82;61.87
76460;BME280;65299;46.084;18.762;2023-06-19T07:00:53;100608.88;;;23.83;62.49
76460;BME280;65299;46.084;18.762;2023-06-19T07:03:53;100609.50;;;24.32;61.34
76460;BME280;65299;46.084;18.762;2023-06-19T07:06:56;100611.72;;;24.42;60.85
76460;BME280;65299;46.084;18.762;2023-06-19T07:09:58;100612.56;;;24.31;60.54
76460;BME280;65299;46.084;18.762;2023-06-19T07:13:00;100612.75;;;24.97;59.39
76460;BME280;65299;46.084;18.762;2023-06-19T07:16:01;100618.78;;;24.75;59.11
76460;BME280;65299;46.084;18.762;2023-06-19T07:19:01;100624.16;;;25.02;57.80
76460;BME280;65299;46.084;18.762;2023-06-19T07:22:04;100626.75;;;24.99;56.31
76460;BME280;65299;46.084;18.762;2023-06-19T07:25:05;100625.69;;;25.19;55.73
76460;BME280;65299;46.084;18.762;2023-06-19T07:28:08;100612.28;;;25.76;52.78
76460;BME280;65299;46.084;18.762;2023-06-19T07:31:11;100619.44;;;25.84;53.92
76460;BME280;65299;46.084;18.762;2023-06-19T07:34:11;100602.56;;;25.75;52.47
76460;BME280;65299;46.084;18.762;2023-06-19T07:37:14;100614.75;;;26.19;52.42
76460;BME280;65299;46.084;18.762;2023-06-19T07:40:19;100613.97;;;26.19;52.75
76460;BME280;65299;46.084;18.762;2023-06-19T07:43:20;100621.34;;;26.38;53.25
76460;BME280;65299;46.084;18.762;2023-06-19T07:46:22;100615.69;;;26.69;49.47
76460;BME280;65299;46.084;18.762;2023-06-19T07:49:22;100615.03;;;26.98;49.70
76460;BME280;65299;46.084;18.762;2023-06-19T07:52:25;100617.47;;;26.61;51.03
76460;BME280;65299;46.084;18.762;2023-06-19T07:55:28;100607.41;;;26.84;48.33
76460;BME280;65299;46.084;18.762;2023-06-19T07:58:29;100615.78;;;26.72;49.36
76460;BME280;65299;46.084;18.762;2023-06-19T08:01:30;100613.56;;;27.04;48.23
76460;BME280;65299;46.084;18.762;2023-06-19T08:04:31;100608.78;;;27.20;48.28
76460;BME280;65299;46.084;18.762;2023-06-19T08:07:34;100613.22;;;27.05;47.78
76460;BME280;65299;46.084;18.762;2023-06-19T08:10:34;100605.94;;;27.36;47.86
76460;BME280;65299;46.084;18.762;2023-06-19T08:13:35;100605.81;;;27.55;43.43
76460;BME280;65299;46.084;18.762;2023-06-19T08:16:40;100601.84;;;27.49;43.67
76460;BME280;65299;46.084;18.762;2023-06-19T08:19:40;100602.00;;;27.92;45.54
76460;BME280;65299;46.084;18.762;2023-06-19T08:22:42;100595.53;;;28.04;41.24
76460;BME280;65299;46.084;18.762;2023-06-19T08:25:42;100595.19;;;28.06;37.18
76460;BME280;65299;46.084;18.762;2023-06-19T08:28:43;100589.91;;;28.20;36.28
76460;BME280;65299;46.084;18.762;2023-06-19T08:31:44;100589.53;;;27.92;39.53
76460;BME280;65299;46.084;18.762;2023-06-19T08:34:47;100592.09;;;28.07;40.17
76460;BME280;65299;46.084;18.762;2023-06-19T08:37:49;100592.41;;;28.02;41.18
76460;BME280;65299;46.084;18.762;2023-06-19T08:40:52;100586.81;;;27.92;42.10
76460;BME280;65299;46.084;18.762;2023-06-19T08:43:54;100589.25;;;28.33;41.96
76460;BME280;65299;46.084;18.762;2023-06-19T08:46:54;100589.91;;;28.56;42.01
76460;BME280;65299;46.084;18.762;2023-06-19T08:49:55;100582.13;;;28.58;42.08
76460;BME280;65299;46.084;18.762;2023-06-19T08:52:57;100583.28;;;28.57;39.88
76460;BME280;65299;46.084;18.762;2023-06-19T08:56:00;100580.25;;;28.33;40.14
76460;BME280;65299;46.084;18.762;2023-06-19T08:59:15;100581.09;;;28.37;40.10
76460;BME280;65299;46.084;18.762;2023-06-19T09:02:16;100569.53;;;28.94;39.02
76460;BME280;65299;46.084;18.762;2023-06-19T09:05:18;100577.28;;;28.85;37.64
76460;BME280;65299;46.084;18.762;2023-06-19T09:08:20;100572.63;;;28.89;37.21
76460;BME280;65299;46.084;18.762;2023-06-19T09:11:23;100577.41;;;29.03;37.88
76460;BME280;65299;46.084;18.762;2023-06-19T09:14:43;100572.66;;;28.93;36.63
76460;BME280;65299;46.084;18.762;2023-06-19T09:17:46;100571.31;;;29.20;36.43
76460;BME280;65299;46.084;18.762;2023-06-19T09:20:46;100567.69;;;29.12;36.11
76460;BME280;65299;46.084;18.762;2023-06-19T09:23:48;100562.09;;;29.45;35.97
76460;BME280;65299;46.084;18.762;2023-06-19T09:30:15;100565.88;;;29.23;35.56
76460;BME280;65299;46.084;18.762;2023-06-19T09:33:15;100555.88;;;29.52;35.43
76460;BME280;65299;46.084;18.762;2023-06-19T09:36:18;100558.94;;;29.43;36.08
76460;BME280;65299;46.084;18.762;2023-06-19T09:39:23;100550.78;;;29.54;36.42
76460;BME280;65299;46.084;18.762;2023-06-19T09:42:31;100545.78;;;29.67;36.36
76460;BME280;65299;46.084;18.762;2023-06-19T09:45:34;100542.53;;;29.47;36.29
76460;BME280;65299;46.084;18.762;2023-06-19T09:48:43;100542.25;;;29.63;36.35
76460;BME280;65299;46.084;18.762;2023-06-19T09:51:44;100541.59;;;29.90;36.03
76460;BME280;65299;46.084;18.762;2023-06-19T09:54:45;100546.25;;;29.83;35.25
76460;BME280;65299;46.084;18.762;2023-06-19T09:57:48;100543.63;;;30.25;35.12
76460;BME280;65299;46.084;18.762;2023-06-19T10:00:51;100544.84;;;30.52;33.05
76460;BME280;65299;46.084;18.762;2023-06-19T10:04:02;100538.50;;;30.13;33.94
76460;BME280;65299;46.084;18.762;2023-06-19T10:07:03;100541.25;;;30.16;33.83
76460;BME280;65299;46.084;18.762;2023-06-19T10:10:08;100538.91;;;30.22;33.37
76460;BME280;65299;46.084;18.762;2023-06-19T10:13:15;100535.34;;;29.97;32.60
76460;BME280;65299;46.084;18.762;2023-06-19T10:16:20;100539.66;;;30.08;33.04
76460;BME280;65299;46.084;18.762;2023-06-19T10:19:22;100537.81;;;30.65;32.87
76460;BME280;65299;46.084;18.762;2023-06-19T10:22:30;100538.19;;;30.46;33.70
76460;BME280;65299;46.084;18.762;2023-06-19T10:25:33;100531.06;;;30.03;32.95
76460;BME280;65299;46.084;18.762;2023-06-19T10:28:36;100534.22;;;30.15;33.03
76460;BME280;65299;46.084;18.762;2023-06-19T10:31:39;100535.44;;;30.39;32.52
76460;BME280;65299;46.084;18.762;2023-06-19T10:34:39;100526.78;;;30.19;33.41
76460;BME280;65299;46.084;18.762;2023-06-19T10:37:42;100533.50;;;30.43;34.58
76460;BME280;65299;46.084;18.762;2023-06-19T10:40:46;100532.72;;;30.78;32.01
76460;BME280;65299;46.084;18.762;2023-06-19T10:43:55;100537.81;;;30.86;32.30
76460;BME280;65299;46.084;18.762;2023-06-19T10:46:56;100530.75;;;31.03;33.38
76460;BME280;65299;46.084;18.762;2023-06-19T10:49:58;100531.53;;;30.75;31.42
76460;BME280;65299;46.084;18.762;2023-06-19T10:53:01;100525.28;;;30.47;33.15
76460;BME280;65299;46.084;18.762;2023-06-19T10:56:02;100523.31;;;30.75;31.04
76460;BME280;65299;46.084;18.762;2023-06-19T10:59:04;100516.28;;;30.99;32.08
76460;BME280;65299;46.084;18.762;2023-06-19T11:02:08;100514.69;;;30.49;32.90
76460;BME280;65299;46.084;18.762;2023-06-19T11:05:11;100501.81;;;30.46;33.18
76460;BME280;65299;46.084;18.762;2023-06-19T11:08:20;100503.72;;;30.73;32.62
76460;BME280;65299;46.084;18.762;2023-06-19T11:11:45;100511.16;;;31.08;32.14
76460;BME280;65299;46.084;18.762;2023-06-19T11:14:46;100500.53;;;31.21;31.37
76460;BME280;65299;46.084;18.762;2023-06-19T11:17:46;100501.75;;;31.13;32.66
76460;BME280;65299;46.084;18.762;2023-06-19T11:20:49;100498.28;;;30.91;32.89
76460;BME280;65299;46.084;18.762;2023-06-19T11:23:52;100498.09;;;31.58;32.77
76460;BME280;65299;46.084;18.762;2023-06-19T11:26:56;100486.75;;;31.45;30.55
76460;BME280;65299;46.084;18.762;2023-06-19T11:30:01;100490.38;;;31.11;30.29
76460;BME280;65299;46.084;18.762;2023-06-19T11:33:17;100491.13;;;31.22;32.12
76460;BME280;65299;46.084;18.762;2023-06-19T11:36:22;100484.03;;;31.35;29.55
76460;BME280;65299;46.084;18.762;2023-06-19T11:39:22;100487.28;;;30.98;30.75
76460;BME280;65299;46.084;18.762;2023-06-19T11:42:23;100477.53;;;30.72;32.23
76460;BME280;65299;46.084;18.762;2023-06-19T11:45:25;100472.00;;;30.79;33.03
76460;BME280;65299;46.084;18.762;2023-06-19T11:48:26;100465.69;;;31.21;31.73
76460;BME280;65299;46.084;18.762;2023-06-19T11:51:26;100467.50;;;31.52;32.80
76460;BME280;65299;46.084;18.762;2023-06-19T11:54:31;100461.91;;;31.73;30.96
76460;BME280;65299;46.084;18.762;2023-06-19T11:57:32;100459.22;;;31.63;31.65
76460;BME280;65299;46.084;18.762;2023-06-19T12:00:33;100461.66;;;31.54;30.42
76460;BME280;65299;46.084;18.762;2023-06-19T12:03:33;100459.41;;;31.21;31.54
76460;BME280;65299;46.084;18.762;2023-06-19T12:06:38;100449.97;;;31.29;31.35
76460;BME280;65299;46.084;18.762;2023-06-19T12:09:41;100450.22;;;31.66;30.76
76460;BME280;65299;46.084;18.762;2023-06-19T12:12:43;100457.00;;;31.33;31.05
76460;BME280;65299;46.084;18.762;2023-06-19T12:15:48;100450.44;;;31.02;31.41
76460;BME280;65299;46.084;18.762;2023-06-19T12:18:48;100440.13;;;31.35;29.64
76460;BME280;65299;46.084;18.762;2023-06-19T12:21:49;100449.81;;;31.60;31.17
76460;BME280;65299;46.084;18.762;2023-06-19T12:24:49;100445.47;;;31.70;29.37
76460;BME280;65299;46.084;18.762;2023-06-19T12:27:50;100432.50;;;31.70;28.82
76460;BME280;65299;46.084;18.762;2023-06-19T12:30:51;100443.34;;;31.95;28.96
76460;BME280;65299;46.084;18.762;2023-06-19T12:33:54;100434.13;;;31.64;29.67
76460;BME280;65299;46.084;18.762;2023-06-19T12:36:54;100438.94;;;31.43;30.09
76460;BME280;65299;46.084;18.762;2023-06-19T12:39:55;100447.09;;;31.60;28.93
76460;BME280;65299;46.084;18.762;2023-06-19T12:42:55;100445.63;;;31.35;27.83
76460;BME280;65299;46.084;18.762;2023-06-19T12:45:58;100445.19;;;31.50;29.20
76460;BME280;65299;46.084;18.762;2023-06-19T12:48:59;100444.16;;;31.96;28.13
76460;BME280;65299;46.084;18.762;2023-06-19T12:52:00;100438.25;;;32.01;28.36
76460;BME280;65299;46.084;18.762;2023-06-19T12:55:00;100436.56;;;32.14;29.03
76460;BME280;65299;46.084;18.762;2023-06-19T12:58:01;100429.78;;;31.67;30.19
76460;BME280;65299;46.084;18.762;2023-06-19T13:01:02;100436.56;;;31.52;30.64
76460;BME280;65299;46.084;18.762;2023-06-19T13:04:05;100435.41;;;31.49;31.58
76460;BME280;65299;46.084;18.762;2023-06-19T13:07:07;100436.94;;;31.54;31.89
76460;BME280;65299;46.084;18.762;2023-06-19T13:10:08;100441.19;;;31.65;30.87
76460;BME280;65299;46.084;18.762;2023-06-19T13:13:08;100425.91;;;31.61;30.80
76460;BME280;65299;46.084;18.762;2023-06-19T13:16:10;100426.59;;;31.79;32.54
76460;BME280;65299;46.084;18.762;2023-06-19T13:19:10;100424.78;;;32.13;30.83
76460;BME280;65299;46.084;18.762;2023-06-19T13:22:13;100426.56;;;32.37;30.26
76460;BME280;65299;46.084;18.762;2023-06-19T13:25:14;100421.75;;;32.48;33.20
76460;BME280;65299;46.084;18.762;2023-06-19T13:28:19;100423.97;;;32.16;32.91
76460;BME280;65299;46.084;18.762;2023-06-19T13:31:19;100424.56;;;32.38;31.19
76460;BME280;65299;46.084;18.762;2023-06-19T13:34:20;100430.28;;;32.13;31.21
76460;BME280;65299;46.084;18.762;2023-06-19T13:37:22;100425.72;;;31.89;30.73
76460;BME280;65299;46.084;18.762;2023-06-19T13:40:23;100427.69;;;31.96;32.79
76460;BME280;65299;46.084;18.762;2023-06-19T13:43:23;100424.66;;;31.76;30.97
76460;BME280;65299;46.084;18.762;2023-06-19T13:46:24;100419.25;;;31.58;32.26
76460;BME280;65299;46.084;18.762;2023-06-19T13:49:24;100418.22;;;31.31;31.63
76460;BME280;65299;46.084;18.762;2023-06-19T13:52:25;100426.03;;;32.05;32.09
76460;BME280;65299;46.084;18.762;2023-06-19T13:55:27;100415.13;;;32.42;32.22
76460;BME280;65299;46.084;18.762;2023-06-19T13:58:28;100423.34;;;31.91;31.94
76460;BME280;65299;46.084;18.762;2023-06-19T14:01:28;100422.00;;;32.20;33.06
76460;BME280;65299;46.084;18.762;2023-06-19T14:04:28;100417.81;;;32.02;30.67
76460;BME280;65299;46.084;18.762;2023-06-19T14:07:29;100422.47;;;32.08;33.92
76460;BME280;65299;46.084;18.762;2023-06-19T14:10:29;100420.03;;;32.21;30.80
76460;BME280;65299;46.084;18.762;2023-06-19T14:13:30;100432.34;;;32.02;33.18
76460;BME280;65299;46.084;18.762;2023-06-19T14:16:30;100424.69;;;32.24;30.91
76460;BME280;65299;46.084;18.762;2023-06-19T14:19:31;100418.91;;;32.59;32.78
76460;BME280;65299;46.084;18.762;2023-06-19T14:22:31;100419.00;;;32.48;32.25
76460;BME280;65299;46.084;18.762;2023-06-19T14:25:31;100419.81;;;32.42;30.48
76460;BME280;65299;46.084;18.762;2023-06-19T14:28:34;100419.44;;;33.18;31.11
76460;BME280;65299;46.084;18.762;2023-06-19T14:31:37;100408.63;;;34.60;27.39
76460;BME280;65299;46.084;18.762;2023-06-19T14:34:39;100403.31;;;33.50;30.01
76460;BME280;65299;46.084;18.762;2023-06-19T14:37:42;100414.03;;;35.07;27.15
76460;BME280;65299;46.084;18.762;2023-06-19T14:40:43;100412.25;;;35.36;27.73
76460;BME280;65299;46.084;18.762;2023-06-19T14:43:44;100409.44;;;33.01;31.41
76460;BME280;65299;46.084;18.762;2023-06-19T14:46:46;100406.09;;;31.98;32.97
76460;BME280;65299;46.084;18.762;2023-06-19T14:49:47;100418.28;;;32.82;32.60
76460;BME280;65299;46.084;18.762;2023-06-19T14:52:48;100409.78;;;34.16;29.74
76460;BME280;65299;46.084;18.762;2023-06-19T14:55:48;100408.16;;;32.31;31.70
76460;BME280;65299;46.084;18.762;2023-06-19T14:58:48;100404.22;;;33.40;32.15
76460;BME280;65299;46.084;18.762;2023-06-19T15:01:51;100405.78;;;33.41;32.81
76460;BME280;65299;46.084;18.762;2023-06-19T15:04:51;100410.91;;;32.31;31.56
76460;BME280;65299;46.084;18.762;2023-06-19T15:07:52;100402.22;;;34.67;28.75
76460;BME280;65299;46.084;18.762;2023-06-19T15:10:52;100404.47;;;35.50;29.92
76460;BME280;65299;46.084;18.762;2023-06-19T15:13:52;100403.00;;;35.26;29.32
76460;BME280;65299;46.084;18.762;2023-06-19T15:16:55;100402.50;;;36.31;26.39
76460;BME280;65299;46.084;18.762;2023-06-19T15:19:58;100390.75;;;36.72;28.17
76460;BME280;65299;46.084;18.762;2023-06-19T15:23:00;100389.41;;;36.64;26.60
76460;BME280;65299;46.084;18.762;2023-06-19T15:26:01;100383.53;;;36.91;25.57
76460;BME280;65299;46.084;18.762;2023-06-19T15:29:04;100391.72;;;36.94;25.49
76460;BME280;65299;46.084;18.762;2023-06-19T15:32:05;100383.84;;;37.47;24.79
76460;BME280;65299;46.084;18.762;2023-06-19T15:35:08;100393.38;;;37.83;25.30
76460;BME280;65299;46.084;18.762;2023-06-19T15:38:09;100382.22;;;36.95;24.98
76460;BME280;65299;46.084;18.762;2023-06-19T15:41:09;100381.72;;;36.84;26.16
76460;BME280;65299;46.084;18.762;2023-06-19T15:44:12;100379.25;;;37.15;25.19
76460;BME280;65299;46.084;18.762;2023-06-19T15:47:12;100378.91;;;37.13;27.50
76460;BME280;65299;46.084;18.762;2023-06-19T15:50:15;100366.50;;;36.03;26.28
76460;BME280;65299;46.084;18.762;2023-06-19T15:53:16;100371.50;;;33.99;31.02
76460;BME280;65299;46.084;18.762;2023-06-19T15:56:19;100364.81;;;33.46;32.67
76460;BME280;65299;46.084;18.762;2023-06-19T15:59:19;100366.38;;;33.17;32.77
76460;BME280;65299;46.084;18.762;2023-06-19T16:02:19;100363.03;;;33.03;33.70
76460;BME280;65299;46.084;18.762;2023-06-19T16:05:20;100369.84;;;32.57;33.06
76460;BME280;65299;46.084;18.762;2023-06-19T16:08:22;100373.66;;;32.26;34.33
76460;BME280;65299;46.084;18.762;2023-06-19T16:11:24;100371.13;;;32.49;34.91
76460;BME280;65299;46.084;18.762;2023-06-19T16:14:24;100373.97;;;31.95;34.33
76460;BME280;65299;46.084;18.762;2023-06-19T16:17:25;100371.38;;;31.70;39.28
76460;BME280;65299;46.084;18.762;2023-06-19T16:20:25;100367.84;;;31.69;34.58
76460;BME280;65299;46.084;18.762;2023-06-19T16:23:26;100372.13;;;31.74;34.73
76460;BME280;65299;46.084;18.762;2023-06-19T16:26:28;100376.34;;;31.85;37.03
76460;BME280;65299;46.084;18.762;2023-06-19T16:29:29;100374.84;;;31.77;35.94
76460;BME280;65299;46.084;18.762;2023-06-19T16:32:29;100379.25;;;31.61;34.34
76460;BME280;65299;46.084;18.762;2023-06-19T16:35:30;100380.59;;;31.97;35.59
76460;BME280;65299;46.084;18.762;2023-06-19T16:38:31;100378.41;;;31.71;35.11
76460;BME280;65299;46.084;18.762;2023-06-19T16:41:31;100382.38;;;31.63;35.90
76460;BME280;65299;46.084;18.762;2023-06-19T16:44:34;100375.28;;;31.69;36.84
76460;BME280;65299;46.084;18.762;2023-06-19T16:47:36;100374.31;;;31.35;37.19
76460;BME280;65299;46.084;18.762;2023-06-19T16:50:39;100377.16;;;31.14;39.35
76460;BME280;65299;46.084;18.762;2023-06-19T16:53:39;100377.50;;;31.23;38.38
76460;BME280;65299;46.084;18.762;2023-06-19T16:56:45;100383.72;;;31.30;38.68
76460;BME280;65299;46.084;18.762;2023-06-19T16:59:45;100384.19;;;31.18;39.04
76460;BME280;65299;46.084;18.762;2023-06-19T17:02:45;100384.97;;;31.12;39.85
76460;BME280;65299;46.084;18.762;2023-06-19T17:05:47;100381.09;;;31.05;40.49
76460;BME280;65299;46.084;18.762;2023-06-19T17:08:48;100383.81;;;31.13;42.00
76460;BME280;65299;46.084;18.762;2023-06-19T17:11:50;100393.94;;;31.26;44.72
76460;BME280;65299;46.084;18.762;2023-06-19T17:14:54;100388.41;;;31.30;41.19
76460;BME280;65299;46.084;18.762;2023-06-19T17:18:00;100381.06;;;31.16;41.57
76460;BME280;65299;46.084;18.762;2023-06-19T17:21:00;100385.09;;;30.90;42.85
76460;BME280;65299;46.084;18.762;2023-06-19T17:24:03;100378.50;;;30.53;45.70
76460;BME280;65299;46.084;18.762;2023-06-19T17:27:08;100385.56;;;30.22;48.75
76460;BME280;65299;46.084;18.762;2023-06-19T17:30:10;100386.38;;;30.15;47.18
76460;BME280;65299;46.084;18.762;2023-06-19T17:33:11;100393.41;;;30.23;45.70
76460;BME280;65299;46.084;18.762;2023-06-19T17:36:14;100388.25;;;30.78;44.48
76460;BME280;65299;46.084;18.762;2023-06-19T17:39:17;100398.03;;;30.72;46.03
76460;BME280;65299;46.084;18.762;2023-06-19T17:42:18;100394.47;;;30.96;45.67
76460;BME280;65299;46.084;18.762;2023-06-19T17:45:20;100389.44;;;30.63;47.80
76460;BME280;65299;46.084;18.762;2023-06-19T17:48:21;100389.09;;;30.44;48.25
76460;BME280;65299;46.084;18.762;2023-06-19T17:51:24;100391.84;;;30.15;49.21
76460;BME280;65299;46.084;18.762;2023-06-19T17:54:25;100387.88;;;29.71;49.20
76460;BME280;65299;46.084;18.762;2023-06-19T17:57:25;100379.94;;;29.30;49.62
76460;BME280;65299;46.084;18.762;2023-06-19T18:00:28;100393.00;;;28.83;51.25
76460;BME280;65299;46.084;18.762;2023-06-19T18:03:29;100392.81;;;28.54;51.30
76460;BME280;65299;46.084;18.762;2023-06-19T18:06:29;100392.28;;;28.35;51.15
76460;BME280;65299;46.084;18.762;2023-06-19T18:09:30;100394.06;;;28.10;51.70
76460;BME280;65299;46.084;18.762;2023-06-19T18:12:30;100390.59;;;27.76;54.02
76460;BME280;65299;46.084;18.762;2023-06-19T18:15:33;100398.75;;;27.72;53.41
76460;BME280;65299;46.084;18.762;2023-06-19T18:18:33;100401.47;;;27.72;54.80
76460;BME280;65299;46.084;18.762;2023-06-19T18:21:34;100394.22;;;27.17;56.40
76460;BME280;65299;46.084;18.762;2023-06-19T18:24:34;100391.69;;;27.01;55.72
76460;BME280;65299;46.084;18.762;2023-06-19T18:27:39;100400.13;;;26.93;56.46
76460;BME280;65299;46.084;18.762;2023-06-19T18:30:42;100394.28;;;26.91;56.83
76460;BME280;65299;46.084;18.762;2023-06-19T18:33:45;100385.78;;;26.70;58.42
76460;BME280;65299;46.084;18.762;2023-06-19T18:36:47;100394.28;;;26.39;59.70
76460;BME280;65299;46.084;18.762;2023-06-19T18:39:48;100394.91;;;26.06;59.82
76460;BME280;65299;46.084;18.762;2023-06-19T18:42:52;100395.97;;;26.01;61.36
76460;BME280;65299;46.084;18.762;2023-06-19T18:45:57;100402.63;;;25.81;61.04
76460;BME280;65299;46.084;18.762;2023-06-19T18:48:57;100408.78;;;25.78;60.99
76460;BME280;65299;46.084;18.762;2023-06-19T18:52:00;100410.16;;;25.49;62.10
76460;BME280;65299;46.084;18.762;2023-06-19T18:55:01;100420.56;;;25.63;61.26
76460;BME280;65299;46.084;18.762;2023-06-19T18:58:01;100422.16;;;25.45;62.39
76460;BME280;65299;46.084;18.762;2023-06-19T19:01:03;100426.47;;;25.30;61.96
76460;BME280;65299;46.084;18.762;2023-06-19T19:04:04;100432.53;;;25.24;62.27
76460;BME280;65299;46.084;18.762;2023-06-19T19:07:07;100435.59;;;25.03;63.83
76460;BME280;65299;46.084;18.762;2023-06-19T19:10:10;100430.22;;;24.88;64.67
76460;BME280;65299;46.084;18.762;2023-06-19T19:13:11;100436.34;;;24.85;64.17
76460;BME280;65299;46.084;18.762;2023-06-19T19:16:12;100450.91;;;24.77;65.08
76460;BME280;65299;46.084;18.762;2023-06-19T19:19:15;100445.06;;;24.59;65.14
76460;BME280;65299;46.084;18.762;2023-06-19T19:22:15;100440.16;;;24.49;66.20
76460;BME280;65299;46.084;18.762;2023-06-19T19:25:16;100448.03;;;24.38;67.00
76460;BME280;65299;46.084;18.762;2023-06-19T19:28:16;100448.94;;;24.27;68.15
76460;BME280;65299;46.084;18.762;2023-06-19T19:31:17;100448.47;;;24.09;68.37
76460;BME280;65299;46.084;18.762;2023-06-19T19:34:22;100450.06;;;24.10;68.59
76460;BME280;65299;46.084;18.762;2023-06-19T19:37:26;100455.53;;;23.98;68.92
76460;BME280;65299;46.084;18.762;2023-06-19T19:40:31;100455.31;;;23.91;69.08
76460;BME280;65299;46.084;18.762;2023-06-19T19:43:32;100461.94;;;23.78;69.27
76460;BME280;65299;46.084;18.762;2023-06-19T19:46:32;100463.22;;;23.68;69.99
76460;BME280;65299;46.084;18.762;2023-06-19T19:49:35;100458.16;;;23.67;70.14
76460;BME280;65299;46.084;18.762;2023-06-19T19:52:35;100465.00;;;23.49;70.68
76460;BME280;65299;46.084;18.762;2023-06-19T19:55:36;100468.75;;;23.44;70.13
76460;BME280;65299;46.084;18.762;2023-06-19T19:58:36;100467.31;;;23.35;70.32
76460;BME280;65299;46.084;18.762;2023-06-19T20:01:42;100474.06;;;23.29;70.12
76460;BME280;65299;46.084;18.762;2023-06-19T20:04:44;100466.78;;;23.05;71.00
76460;BME280;65299;46.084;18.762;2023-06-19T20:07:44;100467.13;;;23.03;69.83
76460;BME280;65299;46.084;18.762;2023-06-19T20:10:45;100470.84;;;22.99;69.99
76460;BME280;65299;46.084;18.762;2023-06-19T20:13:49;100463.53;;;22.87;70.60
76460;BME280;65299;46.084;18.762;2023-06-19T20:16:51;100470.06;;;22.74;71.45
76460;BME280;65299;46.084;18.762;2023-06-19T20:19:54;100477.97;;;22.67;71.70
76460;BME280;65299;46.084;18.762;2023-06-19T20:22:54;100472.13;;;22.65;72.20
76460;BME280;65299;46.084;18.762;2023-06-19T20:25:58;100483.50;;;22.59;72.58
76460;BME280;65299;46.084;18.762;2023-06-19T20:28:59;100483.75;;;22.66;71.24
76460;BME280;65299;46.084;18.762;2023-06-19T20:31:59;100484.94;;;22.56;71.68
76460;BME280;65299;46.084;18.762;2023-06-19T20:35:04;100482.56;;;22.55;71.83
76460;BME280;65299;46.084;18.762;2023-06-19T20:38:07;100482.91;;;22.41;72.01
76460;BME280;65299;46.084;18.762;2023-06-19T20:41:07;100478.16;;;22.38;72.47
76460;BME280;65299;46.084;18.762;2023-06-19T20:44:08;100483.44;;;22.22;72.39
76460;BME280;65299;46.084;18.762;2023-06-19T20:47:11;100485.59;;;22.29;71.96
76460;BME280;65299;46.084;18.762;2023-06-19T20:50:11;100470.72;;;22.23;71.63
76460;BME280;65299;46.084;18.762;2023-06-19T20:53:14;100491.25;;;22.03;72.36